Time;durP1;ratioP1;P1;durP2;ratioP2;P2;SDS_P1;SDS_P2;PMS_P1;PMS_P2;Temp;Humidity;BMP_temperature;BMP_pressure;BME280_temperature;BME280_humidity;BME280_pressure;Samples;Min_cycle;Max_cycle;Signal;HPM_P1;HPM_P2
2022/01/12 00:01:28;;;;;;;6.63;5.13;;;10.70;99.90;;;;;;6084381;23;20419;-69
2022/01/12 00:03:59;;;;;;;6.97;6.27;;;10.80;99.90;;;;;;6084104;23;20964;-67
2022/01/12 00:06:32;;;;;;;5.47;5.00;;;10.80;99.90;;;;;;6086445;23;20453;-68
2022/01/12 00:09:06;;;;;;;6.17;5.57;;;10.90;99.90;;;;;;6087335;23;20947;-69
2022/01/12 00:11:38;;;;;;;6.60;6.00;;;10.80;99.90;;;;;;6091748;23;20494;-71
2022/01/12 00:14:09;;;;;;;6.40;5.73;;;10.80;99.90;;;;;;6084651;23;20426;-70
2022/01/12 00:16:42;;;;;;;5.83;5.33;;;10.80;99.90;;;;;;6087694;23;20413;-72
2022/01/12 00:19:13;;;;;;;6.67;5.87;;;10.90;99.90;;;;;;6087824;23;20412;-70
2022/01/12 00:21:46;;;;;;;6.80;6.10;;;11.00;99.90;;;;;;6088795;23;20412;-70
2022/01/12 00:24:17;;;;;;;5.93;5.40;;;11.00;99.90;;;;;;6084336;23;20455;-69
2022/01/12 00:35:07;;;;;;;5.63;5.00;;;11.50;99.90;;;;;;6086368;23;20412;-70
2022/01/12 00:37:40;;;;;;;5.80;5.30;;;11.50;99.90;;;;;;6087970;23;20416;-69
2022/01/12 00:40:12;;;;;;;5.27;4.80;;;11.60;99.90;;;;;;6088236;23;20731;-71
2022/01/12 00:42:43;;;;;;;6.20;4.23;;;11.70;99.90;;;;;;6087250;23;20412;-69
2022/01/12 00:45:14;;;;;;;7.23;4.87;;;11.80;99.90;;;;;;6089405;23;20459;-69
2022/01/12 00:47:45;;;;;;;5.57;5.07;;;11.80;99.90;;;;;;6088534;23;20502;-75
2022/01/12 00:50:16;;;;;;;5.47;4.43;;;11.90;99.90;;;;;;6087886;23;20809;-70
2022/01/12 00:52:50;;;;;;;5.00;4.60;;;11.90;99.90;;;;;;6090546;23;20504;-71
2022/01/12 00:55:21;;;;;;;4.77;3.83;;;12.00;99.90;;;;;;6089023;23;20408;-71
2022/01/12 00:57:55;;;;;;;3.87;3.57;;;12.00;99.90;;;;;;6090129;23;20416;-75
2022/01/12 01:00:26;;;;;;;4.20;3.73;;;12.00;99.90;;;;;;6085165;23;20413;-72
2022/01/12 01:02:57;;;;;;;3.97;3.67;;;12.10;99.90;;;;;;6089074;23;20421;-70
2022/01/12 01:05:31;;;;;;;3.57;3.27;;;12.10;99.90;;;;;;6085785;23;20448;-70
2022/01/12 01:08:07;;;;;;;4.50;4.17;;;12.10;99.90;;;;;;6089789;23;20420;-76
2022/01/12 01:10:45;;;;;;;4.97;4.00;;;12.00;99.90;;;;;;6088760;23;20447;-71
2022/01/12 01:13:18;;;;;;;6.23;3.70;;;12.00;99.90;;;;;;6091660;23;20431;-67
2022/01/12 01:16:02;;;;;;;4.50;4.20;;;11.90;99.90;;;;;;6093614;23;20419;-69
2022/01/12 01:26:59;;;;;;;3.97;3.67;;;11.70;99.90;;;;;;6091439;23;20424;-68
2022/01/12 01:29:30;;;;;;;4.50;4.10;;;11.80;99.90;;;;;;6088652;23;20424;-72
2022/01/12 01:32:01;;;;;;;6.33;3.57;;;11.80;99.90;;;;;;6088653;23;20419;-69
2022/01/12 01:34:32;;;;;;;3.70;3.40;;;11.90;99.90;;;;;;6086208;23;20419;-71
2022/01/12 01:37:03;;;;;;;4.33;3.93;;;11.90;99.90;;;;;;6088760;23;20538;-68
2022/01/12 01:39:36;;;;;;;5.43;3.70;;;12.00;99.90;;;;;;6088445;23;20417;-69
2022/01/12 01:42:16;;;;;;;4.73;3.97;;;12.10;99.90;;;;;;6090838;23;20412;-69
2022/01/12 01:53:21;;;;;;;4.00;3.53;;;12.10;99.90;;;;;;6090329;23;20946;-68
2022/01/12 01:55:54;;;;;;;5.03;4.53;;;12.10;99.90;;;;;;6079619;23;20435;-69
2022/01/12 01:58:25;;;;;;;4.90;4.40;;;12.00;99.90;;;;;;6091857;23;20896;-70
2022/01/12 02:00:56;;;;;;;3.80;3.40;;;12.00;99.90;;;;;;6085446;23;20416;-69
2022/01/12 02:03:29;;;;;;;4.27;3.77;;;12.10;99.90;;;;;;6091902;23;20948;-72
2022/01/12 02:06:00;;;;;;;4.27;3.60;;;12.10;99.90;;;;;;6081506;23;20452;-68
2022/01/12 02:08:31;;;;;;;4.20;3.90;;;12.20;99.90;;;;;;6092910;23;20491;-70
2022/01/12 02:11:05;;;;;;;7.43;4.43;;;12.20;99.90;;;;;;6090044;23;20496;-67
2022/01/12 02:13:36;;;;;;;4.60;3.50;;;12.20;99.90;;;;;;6088187;23;20411;-69
2022/01/12 02:16:07;;;;;;;3.67;3.37;;;12.30;99.90;;;;;;6085810;23;20763;-68
2022/01/12 02:19:04;;;;;;;5.20;3.23;;;12.30;99.90;;;;;;6089105;23;20506;-69
2022/01/12 02:35:50;;;;;;;3.97;3.60;;;12.40;99.90;;;;;;6092686;23;20417;-73
2022/01/12 02:41:07;;;;;;;4.90;3.87;;;12.50;99.90;;;;;;6042107;23;20417;-69
2022/01/12 02:50:37;;;;;;;4.70;3.57;;;12.50;99.90;;;;;;6091090;23;20698;-75
2022/01/12 02:55:01;;;;;;;4.83;3.10;;;12.60;99.90;;;;;;6091314;23;20431;-86
2022/01/12 02:57:32;;;;;;;6.70;3.93;;;12.70;99.90;;;;;;6092524;23;20475;-84
2022/01/12 03:00:08;;;;;;;4.40;2.70;;;12.80;99.90;;;;;;6090173;23;20734;-77
2022/01/12 03:02:40;;;;;;;3.63;3.20;;;12.80;99.90;;;;;;6089609;23;20419;-76
2022/01/12 03:05:32;;;;;;;3.27;2.97;;;12.80;99.90;;;;;;6089802;23;20742;-75
2022/01/12 03:08:11;;;;;;;3.90;3.50;;;12.80;99.90;;;;;;6093576;23;20499;-75
2022/01/12 03:10:44;;;;;;;3.50;3.00;;;12.80;99.90;;;;;;6092032;23;20527;-75
2022/01/12 03:13:14;;;;;;;7.20;3.50;;;12.70;99.90;;;;;;6091921;23;20413;-79
2022/01/12 03:15:47;;;;;;;3.63;2.90;;;12.70;99.90;;;;;;6090595;23;20928;-79
2022/01/12 03:18:18;;;;;;;3.27;3.07;;;12.70;99.90;;;;;;6090743;23;20424;-80
2022/01/12 03:20:49;;;;;;;3.90;3.50;;;12.80;99.90;;;;;;6087088;23;20455;-77
2022/01/12 03:23:20;;;;;;;3.30;2.87;;;12.90;99.90;;;;;;6092725;23;20500;-82
2022/01/12 03:25:53;;;;;;;4.03;3.00;;;12.90;99.90;;;;;;6091372;23;20511;-83
2022/01/12 03:28:24;;;;;;;3.37;3.07;;;12.90;99.90;;;;;;6096380;23;20518;-77
2022/01/12 03:30:55;;;;;;;3.30;2.30;;;12.90;99.90;;;;;;6091080;23;20412;-83
2022/01/12 03:36:29;;;;;;;3.00;2.80;;;13.00;99.90;;;;;;6068825;23;20423;-81
2022/01/12 03:39:02;;;;;;;4.20;2.37;;;13.00;99.90;;;;;;6093785;23;20422;-79
2022/01/12 04:20:33;;;;;;;5.20;2.87;;;13.50;99.90;;;;;;6083171;23;20424;-92
2022/01/12 04:23:20;;;;;;;3.07;2.77;;;13.50;99.90;;;;;;6073424;23;20423;-74
2022/01/12 04:25:56;;;;;;;2.63;2.43;;;13.50;99.90;;;;;;6090085;23;20448;-72
2022/01/12 04:28:31;;;;;;;3.90;2.60;;;13.60;99.90;;;;;;6091850;23;20419;-74
2022/01/12 04:31:02;;;;;;;2.47;2.27;;;13.60;99.90;;;;;;6088948;23;20449;-72
2022/01/12 07:50:52;;;;;;;1.70;1.60;;;14.30;99.90;;;;;;6016410;23;20482;-82
2022/01/12 08:48:04;;;;;;;1.20;1.03;;;14.40;99.90;;;;;;6067489;23;20790;-73
2022/01/12 08:50:36;;;;;;;1.30;1.17;;;14.40;99.90;;;;;;6117467;23;20825;-68
2022/01/12 08:53:07;;;;;;;1.63;1.43;;;14.30;99.90;;;;;;6118970;23;20498;-69
2022/01/12 08:55:38;;;;;;;1.63;1.33;;;14.30;99.90;;;;;;6117085;23;20407;-68
2022/01/12 08:58:09;;;;;;;1.30;1.20;;;14.30;99.90;;;;;;6120706;23;20431;-71
2022/01/12 09:00:40;;;;;;;1.43;1.33;;;14.20;99.90;;;;;;6116291;23;20408;-69
2022/01/12 09:03:12;;;;;;;1.43;1.33;;;14.10;99.90;;;;;;6118714;23;20419;-70
2022/01/12 09:05:44;;;;;;;1.40;1.30;;;14.20;99.90;;;;;;6115027;23;20455;-70
2022/01/12 09:08:14;;;;;;;3.47;1.40;;;14.20;99.90;;;;;;6120550;23;20411;-70
2022/01/12 09:10:45;;;;;;;1.80;1.40;;;14.20;99.90;;;;;;6115275;23;20896;-71
2022/01/12 09:13:16;;;;;;;1.50;1.40;;;14.30;99.90;;;;;;6120263;23;20499;-71
2022/01/12 09:15:47;;;;;;;1.00;1.00;;;14.30;99.90;;;;;;6118371;23;20414;-71
2022/01/12 09:18:20;;;;;;;1.20;1.10;;;14.20;99.90;;;;;;6115985;23;20476;-71
2022/01/12 09:20:53;;;;;;;1.20;1.10;;;14.30;99.90;;;;;;6119679;23;20434;-70
2022/01/12 09:23:24;;;;;;;1.53;1.17;;;14.30;99.90;;;;;;6118394;23;20423;-70
2022/01/12 09:25:54;;;;;;;1.50;1.40;;;14.40;99.90;;;;;;6119853;23;20888;-70
2022/01/12 09:28:25;;;;;;;1.30;1.20;;;14.40;99.90;;;;;;6120651;23;20500;-71
2022/01/12 09:30:56;;;;;;;1.37;1.27;;;14.30;99.90;;;;;;6115963;23;20571;-71
2022/01/12 09:33:29;;;;;;;1.07;0.83;;;14.30;99.90;;;;;;6120242;23;20454;-70
2022/01/12 09:36:00;;;;;;;1.97;1.30;;;14.20;99.90;;;;;;6117157;23;21011;-71
2022/01/12 09:38:30;;;;;;;1.43;1.40;;;14.10;99.90;;;;;;6118173;23;20514;-72
2022/01/12 09:41:02;;;;;;;1.07;0.93;;;14.00;99.90;;;;;;6117915;23;20943;-71
2022/01/12 09:43:35;;;;;;;3.43;1.93;;;14.00;99.90;;;;;;6120576;23;20411;-72
2022/01/12 09:46:07;;;;;;;2.07;1.30;;;14.00;99.90;;;;;;6117274;23;20833;-72
2022/01/12 09:48:39;;;;;;;1.63;1.30;;;14.00;99.90;;;;;;6116411;23;20412;-70
2022/01/12 09:51:10;;;;;;;1.70;1.20;;;14.00;99.90;;;;;;6116892;23;20465;-72
2022/01/12 09:53:41;;;;;;;1.30;1.20;;;14.00;99.90;;;;;;6118573;23;20968;-72
2022/01/12 09:56:18;;;;;;;1.20;1.10;;;14.10;99.90;;;;;;6116661;23;20416;-69
2022/01/12 09:58:51;;;;;;;1.50;1.40;;;14.10;99.90;;;;;;6118416;23;20423;-71
2022/01/12 10:01:30;;;;;;;1.60;1.03;;;14.10;99.90;;;;;;6118333;23;20494;-71
2022/01/12 10:04:16;;;;;;;1.10;1.00;;;14.10;99.90;;;;;;6117852;23;20426;-72
2022/01/12 10:06:48;;;;;;;1.50;1.33;;;14.10;99.90;;;;;;6117791;23;20761;-71
2022/01/12 10:09:23;;;;;;;2.80;1.30;;;14.10;99.90;;;;;;6119323;23;20502;-71
2022/01/12 10:11:55;;;;;;;1.27;1.17;;;14.10;99.90;;;;;;6116080;23;20490;-71
2022/01/12 10:14:41;;;;;;;1.27;1.17;;;14.00;99.90;;;;;;6119782;23;20932;-71
2022/01/12 10:17:14;;;;;;;1.17;1.07;;;13.90;99.90;;;;;;6117861;23;20470;-71
2022/01/12 10:19:47;;;;;;;2.60;0.93;;;13.80;99.90;;;;;;6121324;23;20407;-71
2022/01/12 10:22:18;;;;;;;1.10;1.10;;;13.80;99.90;;;;;;6120291;23;20430;-71
2022/01/12 10:24:49;;;;;;;1.80;1.20;;;13.80;99.90;;;;;;6119135;23;20419;-71
2022/01/12 10:27:22;;;;;;;1.13;1.03;;;13.80;99.90;;;;;;6119794;23;20443;-71
2022/01/12 10:30:00;;;;;;;1.20;1.03;;;13.90;99.90;;;;;;6119668;23;20422;-71
2022/01/12 10:32:31;;;;;;;6.37;1.40;;;13.90;99.90;;;;;;6121528;23;20920;-69
2022/01/12 10:35:04;;;;;;;1.40;1.30;;;13.80;99.90;;;;;;6116900;23;20415;-70
2022/01/12 10:37:35;;;;;;;1.60;1.20;;;13.80;99.90;;;;;;6121923;23;20414;-69
2022/01/12 10:40:09;;;;;;;1.07;1.07;;;13.70;99.90;;;;;;6118897;23;20454;-71
2022/01/12 10:42:41;;;;;;;1.17;1.10;;;13.70;99.90;;;;;;6119956;23;20819;-70
2022/01/12 10:45:12;;;;;;;1.63;1.53;;;13.70;99.90;;;;;;6121855;23;20416;-69
2022/01/12 10:47:43;;;;;;;1.40;1.30;;;13.80;99.90;;;;;;6117862;23;20454;-70
2022/01/12 10:50:15;;;;;;;1.50;1.20;;;13.90;99.90;;;;;;6120862;23;20785;-69
2022/01/12 10:52:51;;;;;;;1.40;1.30;;;13.80;99.90;;;;;;6117896;23;20502;-70
2022/01/12 10:55:22;;;;;;;1.10;1.00;;;14.00;99.90;;;;;;6117307;23;20474;-71
2022/01/12 10:57:58;;;;;;;1.37;1.27;;;13.90;99.90;;;;;;6122305;23;20415;-70
2022/01/12 11:00:30;;;;;;;1.30;1.20;;;14.00;99.90;;;;;;6119053;23;20427;-71
2022/01/12 11:03:02;;;;;;;1.03;1.00;;;14.00;99.90;;;;;;6119786;23;20419;-70
2022/01/12 11:05:35;;;;;;;1.30;1.20;;;14.10;99.90;;;;;;6118777;23;20435;-71
2022/01/12 11:08:06;;;;;;;1.53;1.30;;;14.10;99.90;;;;;;6121756;23;20539;-71
2022/01/12 11:10:37;;;;;;;1.20;1.00;;;14.20;99.90;;;;;;6119271;23;20783;-71
2022/01/12 11:13:08;;;;;;;1.17;1.07;;;14.20;99.90;;;;;;6119785;23;20418;-70
2022/01/12 11:15:40;;;;;;;1.13;1.00;;;14.20;99.90;;;;;;6121873;23;20415;-70
2022/01/12 11:18:11;;;;;;;1.03;0.97;;;14.20;99.90;;;;;;6118075;23;20407;-70
2022/01/12 11:20:45;;;;;;;1.27;1.17;;;14.10;99.90;;;;;;6119262;23;21017;-71
2022/01/12 11:23:17;;;;;;;1.27;1.00;;;14.00;99.90;;;;;;6117756;23;20415;-71
2022/01/12 11:25:50;;;;;;;1.27;0.70;;;14.10;99.90;;;;;;6119171;23;20410;-71
2022/01/12 11:28:23;;;;;;;1.47;1.10;;;14.20;99.90;;;;;;6119647;23;20534;-71
2022/01/12 11:31:02;;;;;;;1.17;1.07;;;14.20;99.90;;;;;;6120003;23;20415;-72
2022/01/12 11:33:42;;;;;;;1.23;1.13;;;14.20;99.90;;;;;;6120850;23;20491;-69
2022/01/12 11:36:21;;;;;;;1.30;1.20;;;14.30;99.90;;;;;;6118426;23;20411;-71
2022/01/12 11:39:03;;;;;;;1.27;0.93;;;14.40;99.90;;;;;;6121949;23;20431;-69
2022/01/12 11:41:35;;;;;;;1.00;0.90;;;14.40;99.90;;;;;;6119175;23;20415;-71
2022/01/12 11:44:08;;;;;;;1.00;1.00;;;14.40;99.90;;;;;;6119729;23;20403;-70
2022/01/12 11:46:51;;;;;;;1.20;1.10;;;14.40;99.90;;;;;;6119166;23;20442;-72
2022/01/12 11:49:31;;;;;;;1.47;1.37;;;14.40;99.90;;;;;;6118779;23;20447;-69
2022/01/12 11:52:14;;;;;;;1.33;1.23;;;14.30;99.90;;;;;;6121898;23;20415;-70
2022/01/12 11:54:47;;;;;;;1.73;1.03;;;14.30;99.90;;;;;;6116907;23;20423;-70
2022/01/12 11:57:20;;;;;;;1.00;0.90;;;14.30;99.90;;;;;;6121612;23;20408;-71
2022/01/12 11:59:56;;;;;;;1.00;0.90;;;14.30;99.90;;;;;;6116854;23;21034;-69
2022/01/12 12:02:35;;;;;;;1.17;1.07;;;14.30;99.90;;;;;;6119271;23;20443;-70
2022/01/12 12:05:11;;;;;;;1.23;1.13;;;14.20;99.90;;;;;;6116406;23;20447;-70
2022/01/12 12:07:49;;;;;;;0.70;0.70;;;14.30;99.90;;;;;;6121173;23;20487;-70
2022/01/12 12:10:23;;;;;;;1.80;1.00;;;14.20;99.90;;;;;;6119372;23;20451;-69
2022/01/12 12:12:55;;;;;;;1.47;0.80;;;14.20;99.90;;;;;;6119426;23;20950;-71
2022/01/12 12:15:27;;;;;;;1.20;0.87;;;14.20;99.90;;;;;;6116532;23;20496;-70
2022/01/12 12:18:03;;;;;;;1.00;0.90;;;14.20;99.90;;;;;;6119815;23;20731;-69
2022/01/12 12:20:36;;;;;;;0.97;0.90;;;14.40;99.90;;;;;;6117597;23;20420;-70
2022/01/12 12:23:09;;;;;;;2.27;0.80;;;14.30;99.90;;;;;;6119521;23;20422;-70
2022/01/12 12:25:40;;;;;;;1.10;1.00;;;14.20;99.90;;;;;;6112482;23;20434;-69
2022/01/12 12:28:13;;;;;;;1.63;0.83;;;14.20;99.90;;;;;;6119199;23;20827;-68
2022/01/12 12:30:44;;;;;;;1.07;0.97;;;14.10;99.90;;;;;;6118939;23;20411;-68
2022/01/12 12:33:16;;;;;;;1.30;0.80;;;14.10;99.90;;;;;;6119421;23;20412;-69
2022/01/12 12:35:47;;;;;;;1.20;0.90;;;14.20;99.90;;;;;;6115242;23;20932;-71
2022/01/12 12:38:20;;;;;;;3.50;1.57;;;14.20;99.90;;;;;;6120646;23;20408;-69
2022/01/12 12:40:55;;;;;;;1.60;0.90;;;14.10;99.90;;;;;;6117754;23;20982;-70
2022/01/12 12:43:34;;;;;;;1.00;0.97;;;14.00;99.90;;;;;;6120577;23;20415;-69
2022/01/12 12:46:09;;;;;;;1.63;1.00;;;14.10;99.90;;;;;;6118389;23;20418;-69
2022/01/12 12:48:42;;;;;;;1.70;0.90;;;14.00;99.90;;;;;;6116868;23;20518;-70
2022/01/12 12:51:16;;;;;;;1.37;1.20;;;14.00;99.90;;;;;;6117740;23;20412;-69
2022/01/12 12:53:52;;;;;;;1.33;1.23;;;14.00;99.90;;;;;;6119267;23;20443;-69
2022/01/12 12:56:27;;;;;;;2.67;2.10;;;14.00;99.90;;;;;;6120084;23;20411;-68
2022/01/12 12:58:59;;;;;;;2.60;2.40;;;13.70;99.90;;;;;;6118991;23;20880;-70
2022/01/12 13:01:30;;;;;;;2.70;2.50;;;13.50;99.90;;;;;;6118250;23;20454;-70
2022/01/12 13:04:02;;;;;;;2.50;2.30;;;13.30;99.90;;;;;;6120032;23;20444;-68
2022/01/12 13:06:35;;;;;;;3.37;2.50;;;13.00;99.90;;;;;;6116781;23;20416;-68
2022/01/12 13:09:09;;;;;;;4.03;2.50;;;12.70;99.90;;;;;;6119797;23;20453;-68
2022/01/12 13:11:42;;;;;;;3.00;2.70;;;12.40;99.90;;;;;;6118491;23;20422;-67
2022/01/12 13:14:14;;;;;;;3.07;2.77;;;12.10;99.90;;;;;;6120200;23;20491;-70
2022/01/12 13:16:50;;;;;;;8.40;3.17;;;11.90;99.90;;;;;;6116155;23;20427;-69
2022/01/12 13:21:06;;;;;;;2.70;2.50;;;11.70;99.90;;;;;;6117452;23;20447;-71
2022/01/12 13:22:30;;;;;;;3.07;2.60;;;11.70;99.90;;;;;;6118198;23;20415;-69
2022/01/12 13:25:07;;;;;;;3.40;2.93;;;11.60;99.90;;;;;;6119651;23;20498;-68
2022/01/12 13:27:39;;;;;;;3.03;2.73;;;11.60;99.90;;;;;;6117650;23;20950;-69
2022/01/12 13:30:12;;;;;;;2.90;2.53;;;11.60;99.90;;;;;;6117749;23;20438;-68
2022/01/12 13:32:51;;;;;;;3.63;3.07;;;11.50;99.90;;;;;;6120595;23;20552;-68
2022/01/12 13:35:27;;;;;;;3.70;2.90;;;11.50;99.90;;;;;;6115582;23;20441;-69
2022/01/12 13:38:00;;;;;;;3.10;2.70;;;11.50;99.90;;;;;;6118021;23;20416;-70
2022/01/12 13:40:49;;;;;;;3.17;2.73;;;11.50;99.90;;;;;;6119668;23;20498;-70
2022/01/12 13:43:22;;;;;;;3.00;2.70;;;11.50;99.90;;;;;;6118604;23;20413;-70
2022/01/12 13:46:03;;;;;;;3.30;3.00;;;11.70;99.90;;;;;;6118521;23;20728;-70
2022/01/12 13:49:09;;;;;;;3.00;2.70;;;11.60;99.90;;;;;;6118723;23;20538;-70
2022/01/12 13:51:40;;;;;;;2.70;2.50;;;11.50;99.90;;;;;;6118760;23;20411;-69
2022/01/12 13:54:14;;;;;;;3.13;2.63;;;11.50;99.90;;;;;;6118475;23;20415;-70
2022/01/12 13:56:48;;;;;;;2.73;2.53;;;11.60;99.90;;;;;;6122221;23;20630;-68
2022/01/12 13:59:21;;;;;;;2.97;2.63;;;11.50;99.90;;;;;;6118168;23;20407;-70
2022/01/12 14:01:51;;;;;;;2.73;2.53;;;11.50;99.90;;;;;;6120226;23;20798;-68
2022/01/12 14:04:30;;;;;;;3.27;2.37;;;11.50;99.90;;;;;;6118656;23;20754;-69
2022/01/12 14:07:04;;;;;;;3.43;2.50;;;11.50;99.90;;;;;;6120274;23;20416;-68
2022/01/12 14:09:39;;;;;;;2.40;2.20;;;11.50;99.90;;;;;;6120494;23;20443;-70
2022/01/12 14:12:14;;;;;;;3.97;2.80;;;11.30;99.90;;;;;;6122502;23;20490;-69
2022/01/12 14:14:53;;;;;;;2.40;2.20;;;11.30;99.90;;;;;;6119937;23;20411;-69
2022/01/12 14:17:29;;;;;;;6.20;3.03;;;11.20;99.90;;;;;;6117667;23;20726;-70
2022/01/12 14:20:02;;;;;;;3.87;2.70;;;11.20;99.90;;;;;;6121322;23;20531;-70
2022/01/12 14:22:47;;;;;;;3.50;2.67;;;11.10;99.90;;;;;;6117920;23;20415;-70
2022/01/12 14:25:20;;;;;;;3.30;3.00;;;11.10;99.90;;;;;;6121065;23;20480;-69
2022/01/12 14:27:55;;;;;;;7.50;3.03;;;11.00;99.90;;;;;;6119684;23;20419;-70
2022/01/12 14:30:26;;;;;;;2.80;2.60;;;11.10;99.90;;;;;;6118097;23;20446;-67
2022/01/12 14:32:56;;;;;;;2.87;2.60;;;11.00;99.90;;;;;;6120299;23;21035;-70
2022/01/12 14:35:27;;;;;;;4.30;3.33;;;11.00;99.90;;;;;;6118046;23;20767;-69
2022/01/12 14:37:58;;;;;;;4.60;3.27;;;11.00;99.90;;;;;;6122133;23;20441;-68
2022/01/12 14:40:34;;;;;;;4.43;4.03;;;11.00;99.90;;;;;;6118798;23;20504;-69
2022/01/12 14:43:08;;;;;;;4.83;4.23;;;10.90;99.90;;;;;;6119894;23;20927;-69
2022/01/12 14:45:41;;;;;;;3.50;3.20;;;10.90;99.90;;;;;;6120198;23;20415;-71
2022/01/12 14:48:16;;;;;;;5.93;3.17;;;10.80;99.90;;;;;;6117415;23;20415;-71
2022/01/12 14:50:47;;;;;;;3.60;3.30;;;10.60;99.90;;;;;;6118368;23;20481;-70
2022/01/12 14:53:21;;;;;;;3.33;3.07;;;10.50;99.90;;;;;;6118938;23;20434;-70
2022/01/12 14:55:53;;;;;;;3.20;2.57;;;10.40;99.90;;;;;;6119403;23;20929;-70
2022/01/12 14:58:27;;;;;;;4.70;2.57;;;10.60;99.90;;;;;;6119776;23;20420;-71
2022/01/12 15:00:58;;;;;;;3.57;2.83;;;10.60;99.90;;;;;;6117248;23;20415;-70
2022/01/12 15:03:29;;;;;;;7.60;2.70;;;10.60;99.90;;;;;;6119574;23;20962;-71
2022/01/12 15:06:04;;;;;;;3.43;3.10;;;10.50;99.90;;;;;;6117928;23;20869;-71
2022/01/12 15:08:35;;;;;;;5.83;3.30;;;10.60;99.90;;;;;;6117225;23;20417;-70
2022/01/12 15:11:06;;;;;;;3.00;2.80;;;10.50;99.90;;;;;;6120650;23;20412;-70
2022/01/12 15:13:54;;;;;;;2.80;2.60;;;10.50;99.90;;;;;;6119494;23;20703;-70
2022/01/12 15:16:25;;;;;;;2.97;2.67;;;10.60;99.90;;;;;;6121438;23;20418;-71
2022/01/12 15:18:55;;;;;;;3.13;2.90;;;10.50;99.90;;;;;;6119904;23;20754;-70
2022/01/12 15:21:27;;;;;;;2.97;2.40;;;10.50;99.90;;;;;;6114953;23;20430;-71
2022/01/12 15:23:57;;;;;;;4.87;3.20;;;10.40;99.90;;;;;;6115830;23;20479;-71
2022/01/12 15:26:29;;;;;;;3.10;2.80;;;10.30;99.90;;;;;;6118902;23;20446;-70
2022/01/12 15:29:02;;;;;;;2.90;2.70;;;10.30;99.90;;;;;;6121490;23;20724;-70
2022/01/12 15:31:33;;;;;;;3.77;2.80;;;10.30;99.90;;;;;;6115214;23;20506;-72
2022/01/12 15:34:04;;;;;;;4.53;3.10;;;10.30;99.90;;;;;;6120899;23;20412;-72
2022/01/12 15:36:35;;;;;;;2.80;2.47;;;10.20;99.90;;;;;;6119384;23;20999;-71
2022/01/12 15:39:07;;;;;;;3.60;3.20;;;10.10;99.90;;;;;;6118969;23;20448;-72
2022/01/12 15:41:38;;;;;;;2.87;2.50;;;10.00;99.90;;;;;;6121789;23;20440;-71
2022/01/12 15:44:10;;;;;;;3.57;3.07;;;10.00;99.90;;;;;;6119002;23;20411;-72
2022/01/12 15:46:42;;;;;;;2.90;2.60;;;10.00;99.90;;;;;;6119299;23;20522;-72
2022/01/12 15:49:13;;;;;;;3.55;2.95;;;10.00;99.90;;;;;;6114410;23;20503;-71
2022/01/12 15:51:44;;;;;;;3.53;3.20;;;10.00;99.90;;;;;;6111194;23;20264;-70
2022/01/12 15:54:15;;;;;;;6.47;3.20;;;10.00;99.90;;;;;;6118296;23;20184;-72
2022/01/12 15:56:46;;;;;;;2.77;2.47;;;9.90;99.90;;;;;;6119472;23;21316;-71
2022/01/12 15:59:18;;;;;;;4.50;2.88;;;9.80;99.90;;;;;;6120965;23;20443;-74
2022/01/12 16:01:49;;;;;;;6.00;3.10;;;9.70;99.90;;;;;;6119089;23;20625;-71
2022/01/12 16:04:21;;;;;;;5.72;3.03;;;9.70;99.90;;;;;;6117866;23;20424;-74
2022/01/12 16:06:52;;;;;;;5.28;3.25;;;9.60;99.90;;;;;;6117340;23;20330;-76
2022/01/12 16:09:23;;;;;;;5.32;3.40;;;9.60;99.90;;;;;;6118798;23;20386;-74
2022/01/12 16:11:55;;;;;;;4.38;3.17;;;9.60;99.90;;;;;;6120875;23;20200;-71
2022/01/12 16:14:50;;;;;;;2.80;2.60;;;9.60;99.90;;;;;;6118259;23;20188;-74
2022/01/12 16:17:21;;;;;;;3.53;3.22;;;9.50;99.90;;;;;;6117294;23;20188;-72
2022/01/12 16:19:52;;;;;;;6.97;3.55;;;9.50;99.90;;;;;;6120169;23;20184;-73
2022/01/12 16:22:23;;;;;;;5.60;3.97;;;9.50;99.90;;;;;;6118644;23;20220;-72
2022/01/12 16:24:54;;;;;;;6.30;3.50;;;9.50;99.90;;;;;;6116549;23;20184;-74
2022/01/12 16:27:25;;;;;;;4.35;3.90;;;9.60;99.90;;;;;;6120944;23;20274;-72
2022/01/12 16:29:58;;;;;;;6.03;3.08;;;9.50;99.90;;;;;;6118636;23;20223;-72
2022/01/12 16:32:30;;;;;;;3.20;3.00;;;9.60;99.90;;;;;;6118580;23;20535;-73
2022/01/12 16:35:01;;;;;;;3.38;3.00;;;9.70;99.90;;;;;;6117564;23;20640;-69
2022/01/12 16:37:32;;;;;;;3.15;2.85;;;9.70;99.90;;;;;;6119084;23;20275;-74
2022/01/12 16:40:06;;;;;;;4.22;3.35;;;9.80;99.90;;;;;;6117794;23;20242;-77
2022/01/12 16:42:37;;;;;;;3.95;3.20;;;9.80;99.90;;;;;;6118676;23;20206;-72
2022/01/12 16:45:11;;;;;;;6.30;3.70;;;9.80;99.90;;;;;;6116821;23;20359;-69
2022/01/12 16:47:47;;;;;;;5.00;3.55;;;9.80;99.90;;;;;;6119498;23;20678;-82
2022/01/12 16:50:18;;;;;;;5.00;3.80;;;9.80;99.90;;;;;;6117824;23;20263;-73
2022/01/12 16:52:51;;;;;;;4.30;3.40;;;9.90;99.90;;;;;;6119624;23;20440;-73
2022/01/12 16:55:22;;;;;;;4.55;3.88;;;10.00;99.90;;;;;;6117834;23;20444;-76
2022/01/12 16:57:53;;;;;;;4.70;3.22;;;10.00;99.90;;;;;;6116054;23;20188;-72
2022/01/12 17:00:30;;;;;;;5.90;4.10;;;10.00;99.90;;;;;;6120365;23;20214;-73
2022/01/12 17:03:04;;;;;;;6.00;3.27;;;10.00;99.90;;;;;;6114734;23;20801;-78
2022/01/12 17:05:36;;;;;;;3.25;2.80;;;10.10;99.90;;;;;;6117200;23;20494;-70
2022/01/12 17:08:07;;;;;;;5.10;3.63;;;10.30;99.90;;;;;;6120566;23;20188;-74
2022/01/12 17:10:38;;;;;;;3.70;3.40;;;10.50;99.90;;;;;;6115218;23;20467;-73
2022/01/12 17:13:10;;;;;;;3.90;3.13;;;11.20;99.90;;;;;;6115082;23;20420;-74
2022/01/12 17:19:38;;;;;;;6.80;3.90;;;12.20;99.90;;;;;;5125116;27;20542;-74
2022/01/12 17:22:27;;;;;;;4.10;3.73;;;12.60;99.90;;;;;;5104401;28;20569;-72
2022/01/12 17:25:31;;;;;;;5.07;3.27;;;13.40;99.90;;;;;;5111620;28;20457;-72
2022/01/12 17:28:31;;;;;;;3.80;3.40;;;13.80;99.90;;;;;;5040993;28;20472;-73
2022/01/12 17:31:02;;;;;;;3.07;2.77;;;14.00;99.90;;;;;;5033713;28;21087;-71
2022/01/12 17:33:33;;;;;;;2.70;2.50;;;14.20;99.90;;;;;;5067075;28;20516;-71
2022/01/12 17:36:36;;;;;;;4.10;3.37;;;14.70;99.90;;;;;;5095622;28;20460;-75
2022/01/12 17:39:11;;;;;;;3.00;2.80;;;14.80;99.90;;;;;;5085908;28;20477;-77
2022/01/12 17:41:45;;;;;;;3.20;2.50;;;14.20;99.90;;;;;;5087053;28;20467;-72
2022/01/12 17:44:16;;;;;;;3.30;2.87;;;14.00;99.90;;;;;;5093950;28;20528;-74
2022/01/12 17:46:47;;;;;;;5.50;2.70;;;13.70;99.90;;;;;;5091680;28;20561;-74
2022/01/12 17:49:19;;;;;;;3.30;3.00;;;13.60;99.90;;;;;;5088683;28;20551;-77
2022/01/12 17:51:55;;;;;;;3.30;2.53;;;13.40;99.90;;;;;;5102840;27;20458;-79
2022/01/12 17:54:45;;;;;;;5.00;2.60;;;13.40;99.90;;;;;;5087319;28;20474;-74
2022/01/12 17:57:28;;;;;;;3.17;2.87;;;13.50;99.90;;;;;;5087636;28;20486;-77
2022/01/12 18:00:09;;;;;;;3.80;2.93;;;13.50;99.90;;;;;;5093392;28;20462;-72
2022/01/12 18:02:39;;;;;;;3.67;2.63;;;13.40;99.90;;;;;;5095300;28;20460;-71
2022/01/12 18:05:11;;;;;;;3.30;2.73;;;13.40;99.90;;;;;;5099159;28;20556;-72
2022/01/12 18:07:44;;;;;;;3.77;2.77;;;13.50;99.90;;;;;;5101645;28;20542;-71
2022/01/12 18:10:18;;;;;;;6.23;2.70;;;13.50;99.90;;;;;;5103774;27;20475;-78
2022/01/12 18:12:49;;;;;;;3.40;2.87;;;13.60;99.90;;;;;;5103807;28;20898;-72
2022/01/12 18:15:20;;;;;;;3.13;2.70;;;13.80;99.90;;;;;;5110771;27;20457;-73
2022/01/12 18:21:37;;;;;;;1.93;1.70;;;14.20;99.90;;;;;;5102642;28;20966;-69
2022/01/12 18:24:40;;;;;;;5.20;2.50;;;14.40;99.90;;;;;;5102974;28;20463;-72
2022/01/12 18:27:22;;;;;;;2.90;2.30;;;14.80;99.90;;;;;;5099318;28;20976;-75
2022/01/12 18:29:58;;;;;;;4.63;2.03;;;15.30;99.90;;;;;;5090145;28;20553;-72
2022/01/12 18:32:31;;;;;;;3.53;2.30;;;16.30;99.90;;;;;;5085362;28;20793;-71
2022/01/12 18:35:16;;;;;;;2.40;2.20;;;17.20;99.90;;;;;;5087731;28;20473;-72
2022/01/12 18:37:51;;;;;;;3.63;2.20;;;17.40;99.90;;;;;;5087878;28;20509;-73
2022/01/12 18:40:35;;;;;;;2.97;2.40;;;17.70;99.90;;;;;;5083030;28;20429;-73
2022/01/12 18:43:08;;;;;;;2.90;2.60;;;18.00;99.90;;;;;;5088538;28;20429;-71
2022/01/12 18:45:39;;;;;;;4.60;2.50;;;17.90;99.90;;;;;;5094236;28;20465;-72
2022/01/12 18:48:10;;;;;;;2.83;2.30;;;17.70;99.90;;;;;;5090083;28;20949;-73
2022/01/12 18:50:44;;;;;;;5.17;2.90;;;17.40;99.90;;;;;;5076463;28;20794;-72
2022/01/12 18:53:16;;;;;;;3.70;2.20;;;17.00;99.90;;;;;;5087462;28;20441;-71
2022/01/12 18:55:48;;;;;;;3.07;2.77;;;16.80;99.90;;;;;;5074579;28;20992;-70
2022/01/12 18:58:25;;;;;;;4.60;2.60;;;17.10;99.90;;;;;;5088068;28;21028;-73
2022/01/12 19:00:56;;;;;;;3.87;2.30;;;17.00;99.90;;;;;;5082416;28;20473;-73
2022/01/12 19:03:45;;;;;;;5.53;2.80;;;17.30;99.90;;;;;;5095090;28;20458;-73
2022/01/12 19:09:18;;;;;;;3.17;2.60;;;18.20;99.90;;;;;;5082245;28;20463;-73
2022/01/12 19:11:52;;;;;;;2.53;2.33;;;18.30;99.90;;;;;;5094873;28;20557;-71
2022/01/12 19:14:24;;;;;;;3.23;2.37;;;18.80;99.90;;;;;;5086997;28;20486;-70
2022/01/12 19:16:55;;;;;;;2.90;2.47;;;19.30;99.90;;;;;;5084491;28;20464;-71
2022/01/12 19:19:33;;;;;;;2.20;1.90;;;19.60;99.90;;;;;;5086406;28;20489;-73